Observations for JERSEY AIRPORT, United Kingdom (EGJJ)

EGJJ 252220Z AUTO 29003KT 9999 BKN018/// OVC022/// 15/14 Q1021 RE   
EGJJ 252150Z AUTO 29003KT 9999 SCT025/// 15/14 Q1021 RE 
EGJJ 252120Z 29005KT 9999 BKN029 14/14 Q1022
EGJJ 252050Z 29006KT 9999 FEW014 14/14 Q1022
EGJJ 252020Z 30006KT 9999 SCT006 SCT017 15/15 Q1022 
EGJJ 251950Z 30005KT 9999 FEW005 15/14 Q1022
EGJJ 251920Z 30007KT 9999 FEW005 BKN006 15/15 Q1022 
EGJJ 251850Z 30006KT 9999 FEW006 BKN034 15/15 Q1021 
EGJJ 251820Z 30007KT 9999 FEW006 BKN033 15/15 Q1021 
EGJJ 251750Z 30007KT 9999 FEW005 BKN006 16/15 Q1021 
EGJJ 251720Z 29009KT 9999 FEW006 BKN017 16/15 Q1021 
EGJJ 251650Z 31008KT 270V350 9999 FEW007 BKN017 16/15 Q1021 
EGJJ 251620Z 31009KT 9999 FEW008 BKN018 16/15 Q1020 
EGJJ 251550Z 32008KT 290V360 9999 SCT006 BKN017 16/15 Q1020 
EGJJ 251520Z 32008KT 290V350 9999 FEW011 BKN018 17/15 Q1020 
EGJJ 251450Z 32008KT 290V350 9999 SCT006 BKN018 17/16 Q1020 
EGJJ 251420Z 33010KT 290V350 9999 SCT007 BKN018 17/16 Q1020 
EGJJ 251350Z 34009KT 310V010 9999 FEW009 BKN018 17/15 Q1019 
EGJJ 251320Z 32010KT 290V360 9999 FEW008 BKN015 17/16 Q1020 
EGJJ 251250Z 33009KT 300V010 9999 FEW005 SCT006 BKN012 17/16 Q1019  
EGJJ 251220Z 33009KT 310V010 9999 FEW005 BKN006 17/16 Q1019 
EGJJ 251150Z 35008KT 310V040 9999 FEW004 BKN006 17/16 Q1019 
EGJJ 251120Z 34009KT 310V020 9999 FEW004 SCT013 BKN033 17/17 Q1019  
EGJJ 251050Z 33007KT 300V010 9999 FEW002 SCT005 BKN006 16/16 Q1019  
EGJJ 251020Z 35007KT 9999 SCT006 BKN007 16/16 Q1019 
EGJJ 250950Z 33007KT 300V010 9999 FEW004 BKN005 16/16 Q1019 
EGJJ 250920Z 35006KT 310V010 9999 FEW004 SCT005 BKN007 16/16 Q1019  
EGJJ 250850Z 33005KT 280V010 9999 FEW002 BKN003 16/16 Q1018 
EGJJ 250820Z 34006KT 290V020 9999 SCT003 BKN004 16/16 Q1018 
EGJJ 250750Z 33005KT 300V010 4500 -DZ VCFG FEW000 SCT002 BKN003 16/16 Q1018 
EGJJ 250720Z 33005KT 4000 -DZRA VCFG FEW000 BKN002 16/16 Q1018 RERA REDZ
EGJJ 250650Z 31005KT 1500 RADZ VCFG FEW000 BKN002 16/16 Q1018   
EGJJ 250620Z 30005KT 1500 -DZ FG FEW000 BKN002 15/15 Q1017 REDZ 
EGJJ 250550Z 30005KT 5000 -DZ BKN003 15/15 Q1017
EGJJ 250520Z 30007KT 7000 SCT003 BKN006 BKN009 15/15 Q1017  
EGJJ 250450Z 29006KT 6000 SCT002 BKN004 15/15 Q1017 
EGJJ 250420Z AUTO 30005KT 8000 // FEW003/// BKN004/// OVC006/// 15/15 Q1017 RE  
EGJJ 250350Z AUTO 29003KT 6000 // SCT003/// BKN004/// OVC005/// 15/15 Q1017 RE  
EGJJ 250320Z AUTO 30006KT 7000 // SCT003/// OVC004/// 15/15 Q1016 RE
EGJJ 250250Z AUTO 31004KT 7000 // BKN003/// BKN004/// OVC005/// 15/15 Q1017 RERA
EGJJ 250220Z AUTO 30005KT 6000 // SCT002/// BKN003/// BKN005/// 15/15 Q1017 RERA
EGJJ 250150Z AUTO 30005KT 5000 // SCT003/// BKN005/// BKN006/// 15/15 Q1017 RE  
EGJJ 250120Z AUTO 29004KT 6000 // BKN003/// OVC004/// 15/15 Q1017 RE
EGJJ 250050Z AUTO 29006KT 6000 // BKN003/// BKN004/// OVC030/// 15/15 Q1017 RE  
EGJJ 250020Z AUTO 30006KT 6000 // FEW002/// SCT003/// OVC029/// 15/15 Q1017 RE  
EGJJ 242350Z AUTO 29007KT 6000 // FEW002/// SCT003/// BKN006/// 15/15 Q1017 RE  
EGJJ 242320Z AUTO 28005KT 5000 // BKN003/// OVC004/// 15/15 Q1018 RE
EGJJ 242250Z AUTO 26006KT 2600 // BKN001/// OVC003/// 16/16 Q1017 REFG  
EGJJ 242220Z AUTO 27006KT 2500 // OVC001/// 16/16 Q1017 REFG
EGJJ 242150Z AUTO 28007KT 0450 R26/////N // BKN001/// OVC003/// 16/16 Q1017 REFG
EGJJ 242150Z AUTO 28007KT 0450 R26/N // BKN001/// OVC003/// 16/16 Q1017 REFG